sensor_id;sensor_type;location;lat;lon;timestamp;pressure;altitude;pressure_sealevel;temperature;humidity
39999;BME280;25696;42.646;23.368;2023-07-28T00:01:42;94598.78;;;16.97;57.47
39999;BME280;25696;42.646;23.368;2023-07-28T00:04:08;94590.88;;;16.83;58.01
39999;BME280;25696;42.646;23.368;2023-07-28T00:06:35;94594.19;;;16.85;58.58
39999;BME280;25696;42.646;23.368;2023-07-28T00:09:01;94585.50;;;16.72;58.80
39999;BME280;25696;42.646;23.368;2023-07-28T00:11:27;94592.69;;;16.78;58.54
39999;BME280;25696;42.646;23.368;2023-07-28T00:13:53;94595.75;;;16.81;58.74
39999;BME280;25696;42.646;23.368;2023-07-28T00:16:18;94589.63;;;16.74;58.58
39999;BME280;25696;42.646;23.368;2023-07-28T00:18:44;94594.56;;;16.77;59.40
39999;BME280;25696;42.646;23.368;2023-07-28T00:21:09;94584.91;;;16.70;58.86
39999;BME280;25696;42.646;23.368;2023-07-28T00:23:34;94579.50;;;16.58;59.26
39999;BME280;25696;42.646;23.368;2023-07-28T00:26:00;94590.47;;;16.63;58.83
39999;BME280;25696;42.646;23.368;2023-07-28T00:28:25;94580.56;;;16.57;59.55
39999;BME280;25696;42.646;23.368;2023-07-28T00:30:51;94581.25;;;16.41;59.93
39999;BME280;25696;42.646;23.368;2023-07-28T00:33:16;94577.28;;;16.32;59.04
39999;BME280;25696;42.646;23.368;2023-07-28T00:35:42;94573.56;;;15.87;57.50
39999;BME280;25696;42.646;23.368;2023-07-28T00:38:08;94587.94;;;15.76;57.51
39999;BME280;25696;42.646;23.368;2023-07-28T00:40:35;94591.84;;;16.03;58.58
39999;BME280;25696;42.646;23.368;2023-07-28T00:43:00;94589.59;;;16.12;60.49
39999;BME280;25696;42.646;23.368;2023-07-28T00:45:25;94582.84;;;16.02;60.84
39999;BME280;25696;42.646;23.368;2023-07-28T00:47:51;94593.84;;;15.96;61.65
39999;BME280;25696;42.646;23.368;2023-07-28T00:50:17;94600.44;;;15.65;62.91
39999;BME280;25696;42.646;23.368;2023-07-28T00:52:43;94588.63;;;15.60;62.14
39999;BME280;25696;42.646;23.368;2023-07-28T00:55:09;94601.50;;;15.76;61.23
39999;BME280;25696;42.646;23.368;2023-07-28T00:57:34;94587.72;;;15.89;60.52
39999;BME280;25696;42.646;23.368;2023-07-28T01:00:00;94594.91;;;15.83;60.32
39999;BME280;25696;42.646;23.368;2023-07-28T01:02:26;94592.31;;;15.88;60.27
39999;BME280;25696;42.646;23.368;2023-07-28T01:04:52;94595.28;;;15.87;60.37
39999;BME280;25696;42.646;23.368;2023-07-28T01:07:30;94596.44;;;15.91;59.80
39999;BME280;25696;42.646;23.368;2023-07-28T01:10:22;94588.28;;;15.79;60.22
39999;BME280;25696;42.646;23.368;2023-07-28T01:12:49;94595.44;;;15.09;60.58
39999;BME280;25696;42.646;23.368;2023-07-28T01:15:15;94599.09;;;15.03;60.81
39999;BME280;25696;42.646;23.368;2023-07-28T01:17:41;94602.41;;;15.05;60.36
39999;BME280;25696;42.646;23.368;2023-07-28T01:20:07;94590.69;;;14.93;59.88
39999;BME280;25696;42.646;23.368;2023-07-28T01:22:58;94587.22;;;14.86;58.66
39999;BME280;25696;42.646;23.368;2023-07-28T01:28:23;94594.44;;;15.22;58.18
39999;BME280;25696;42.646;23.368;2023-07-28T01:30:49;94597.63;;;15.30;57.29
39999;BME280;25696;42.646;23.368;2023-07-28T01:33:14;94587.31;;;14.80;58.81
39999;BME280;25696;42.646;23.368;2023-07-28T01:35:39;94585.19;;;14.34;61.64
39999;BME280;25696;42.646;23.368;2023-07-28T01:38:05;94585.72;;;14.06;62.60
39999;BME280;25696;42.646;23.368;2023-07-28T01:40:31;94582.34;;;14.29;62.06
39999;BME280;25696;42.646;23.368;2023-07-28T01:42:56;94583.25;;;14.41;62.11
39999;BME280;25696;42.646;23.368;2023-07-28T01:45:22;94589.63;;;14.10;62.97
39999;BME280;25696;42.646;23.368;2023-07-28T01:47:47;94592.75;;;14.07;62.97
39999;BME280;25696;42.646;23.368;2023-07-28T01:50:13;94580.78;;;14.15;62.64
39999;BME280;25696;42.646;23.368;2023-07-28T01:52:38;94584.22;;;14.28;62.43
39999;BME280;25696;42.646;23.368;2023-07-28T01:55:04;94584.16;;;14.35;62.22
39999;BME280;25696;42.646;23.368;2023-07-28T01:57:32;94592.50;;;14.52;62.48
39999;BME280;25696;42.646;23.368;2023-07-28T01:59:58;94588.03;;;14.57;62.86
39999;BME280;25696;42.646;23.368;2023-07-28T02:02:23;94586.19;;;14.69;62.35
39999;BME280;25696;42.646;23.368;2023-07-28T02:04:49;94593.00;;;14.60;61.47
39999;BME280;25696;42.646;23.368;2023-07-28T02:07:14;94585.84;;;14.66;61.17
39999;BME280;25696;42.646;23.368;2023-07-28T02:09:40;94600.81;;;14.68;61.01
39999;BME280;25696;42.646;23.368;2023-07-28T02:12:05;94594.22;;;14.64;61.57
39999;BME280;25696;42.646;23.368;2023-07-28T02:14:31;94589.50;;;14.71;61.39
39999;BME280;25696;42.646;23.368;2023-07-28T02:16:56;94602.38;;;14.76;60.11
39999;BME280;25696;42.646;23.368;2023-07-28T02:19:22;94583.41;;;14.76;60.72
39999;BME280;25696;42.646;23.368;2023-07-28T02:21:47;94595.59;;;14.85;60.41
39999;BME280;25696;42.646;23.368;2023-07-28T02:24:12;94604.66;;;14.61;61.16
39999;BME280;25696;42.646;23.368;2023-07-28T02:26:38;94593.44;;;14.57;60.97
39999;BME280;25696;42.646;23.368;2023-07-28T02:29:03;94605.78;;;14.71;61.07
39999;BME280;25696;42.646;23.368;2023-07-28T02:31:29;94600.06;;;14.61;60.45
39999;BME280;25696;42.646;23.368;2023-07-28T02:33:55;94595.94;;;14.59;60.28
39999;BME280;25696;42.646;23.368;2023-07-28T02:36:20;94603.84;;;14.60;60.27
39999;BME280;25696;42.646;23.368;2023-07-28T02:38:46;94599.03;;;14.62;60.11
39999;BME280;25696;42.646;23.368;2023-07-28T02:41:11;94595.94;;;14.59;60.22
39999;BME280;25696;42.646;23.368;2023-07-28T02:43:37;94608.81;;;14.63;60.17
39999;BME280;25696;42.646;23.368;2023-07-28T02:46:03;94605.72;;;14.60;60.20
39999;BME280;25696;42.646;23.368;2023-07-28T02:48:28;94603.53;;;14.68;60.54
39999;BME280;25696;42.646;23.368;2023-07-28T02:50:53;94604.91;;;14.59;61.27
39999;BME280;25696;42.646;23.368;2023-07-28T02:53:19;94603.78;;;14.30;62.51
39999;BME280;25696;42.646;23.368;2023-07-28T02:55:46;94602.75;;;14.07;63.30
39999;BME280;25696;42.646;23.368;2023-07-28T02:58:12;94598.78;;;13.91;64.93
39999;BME280;25696;42.646;23.368;2023-07-28T03:00:39;94591.09;;;13.88;65.24
39999;BME280;25696;42.646;23.368;2023-07-28T03:03:09;94597.88;;;13.97;65.44
39999;BME280;25696;42.646;23.368;2023-07-28T03:05:38;94594.50;;;14.02;65.62
39999;BME280;25696;42.646;23.368;2023-07-28T03:08:05;94608.41;;;14.23;65.45
39999;BME280;25696;42.646;23.368;2023-07-28T03:10:31;94606.91;;;14.27;65.30
39999;BME280;25696;42.646;23.368;2023-07-28T03:12:56;94595.00;;;14.35;65.36
39999;BME280;25696;42.646;23.368;2023-07-28T03:15:22;94601.66;;;14.50;65.33
39999;BME280;25696;42.646;23.368;2023-07-28T03:17:49;94603.09;;;14.53;65.19
39999;BME280;25696;42.646;23.368;2023-07-28T03:20:15;94606.31;;;14.62;65.28
39999;BME280;25696;42.646;23.368;2023-07-28T03:22:40;94616.69;;;14.65;65.12
39999;BME280;25696;42.646;23.368;2023-07-28T03:25:06;94613.31;;;14.69;65.19
39999;BME280;25696;42.646;23.368;2023-07-28T03:27:31;94612.53;;;14.80;64.95
39999;BME280;25696;42.646;23.368;2023-07-28T03:29:57;94619.31;;;14.71;65.13
39999;BME280;25696;42.646;23.368;2023-07-28T03:32:22;94623.16;;;14.82;64.65
39999;BME280;25696;42.646;23.368;2023-07-28T03:34:48;94618.25;;;14.90;64.72
39999;BME280;25696;42.646;23.368;2023-07-28T03:37:13;94621.47;;;14.99;64.19
39999;BME280;25696;42.646;23.368;2023-07-28T03:39:39;94622.06;;;15.01;63.79
39999;BME280;25696;42.646;23.368;2023-07-28T03:42:04;94608.84;;;15.04;63.60
39999;BME280;25696;42.646;23.368;2023-07-28T03:44:30;94622.94;;;14.83;64.22
39999;BME280;25696;42.646;23.368;2023-07-28T03:46:55;94627.13;;;14.97;64.29
39999;BME280;25696;42.646;23.368;2023-07-28T03:49:21;94630.78;;;15.03;64.09
39999;BME280;25696;42.646;23.368;2023-07-28T03:51:46;94625.72;;;15.06;63.43
39999;BME280;25696;42.646;23.368;2023-07-28T03:54:12;94634.84;;;15.12;63.46
39999;BME280;25696;42.646;23.368;2023-07-28T03:56:37;94624.81;;;15.12;63.15
39999;BME280;25696;42.646;23.368;2023-07-28T03:59:03;94615.84;;;14.82;63.74
39999;BME280;25696;42.646;23.368;2023-07-28T04:01:28;94628.56;;;15.00;63.66
39999;BME280;25696;42.646;23.368;2023-07-28T04:03:54;94617.13;;;14.98;63.44
39999;BME280;25696;42.646;23.368;2023-07-28T04:06:19;94619.84;;;15.09;63.42
39999;BME280;25696;42.646;23.368;2023-07-28T04:08:45;94622.38;;;15.22;62.55
39999;BME280;25696;42.646;23.368;2023-07-28T04:11:10;94639.38;;;15.29;62.66
39999;BME280;25696;42.646;23.368;2023-07-28T04:13:36;94640.47;;;15.28;62.66
39999;BME280;25696;42.646;23.368;2023-07-28T04:16:01;94641.31;;;15.41;62.29
39999;BME280;25696;42.646;23.368;2023-07-28T04:18:27;94631.97;;;15.37;62.36
39999;BME280;25696;42.646;23.368;2023-07-28T04:20:52;94629.09;;;15.50;61.65
39999;BME280;25696;42.646;23.368;2023-07-28T04:23:18;94627.56;;;15.54;60.73
39999;BME280;25696;42.646;23.368;2023-07-28T04:25:43;94626.66;;;15.60;60.66
39999;BME280;25696;42.646;23.368;2023-07-28T04:28:09;94632.44;;;15.63;60.36
39999;BME280;25696;42.646;23.368;2023-07-28T04:30:34;94642.00;;;15.66;60.16
39999;BME280;25696;42.646;23.368;2023-07-28T04:33:00;94637.75;;;15.70;60.27
39999;BME280;25696;42.646;23.368;2023-07-28T04:35:25;94628.38;;;15.54;60.70
39999;BME280;25696;42.646;23.368;2023-07-28T04:37:51;94629.72;;;15.75;60.26
39999;BME280;25696;42.646;23.368;2023-07-28T04:40:16;94637.28;;;15.96;59.63
39999;BME280;25696;42.646;23.368;2023-07-28T04:42:41;94624.41;;;16.15;58.81
39999;BME280;25696;42.646;23.368;2023-07-28T04:45:07;94646.41;;;16.13;59.47
39999;BME280;25696;42.646;23.368;2023-07-28T04:47:33;94631.63;;;16.21;59.31
39999;BME280;25696;42.646;23.368;2023-07-28T04:49:58;94636.34;;;16.48;58.72
39999;BME280;25696;42.646;23.368;2023-07-28T04:52:24;94627.97;;;17.01;58.05
39999;BME280;25696;42.646;23.368;2023-07-28T04:54:49;94634.81;;;18.26;54.16
39999;BME280;25696;42.646;23.368;2023-07-28T04:57:15;94629.63;;;19.76;49.39
39999;BME280;25696;42.646;23.368;2023-07-28T04:59:40;94624.22;;;21.74;45.22
39999;BME280;25696;42.646;23.368;2023-07-28T05:02:06;94623.69;;;22.92;41.12
39999;BME280;25696;42.646;23.368;2023-07-28T05:04:31;94623.59;;;24.54;37.78
39999;BME280;25696;42.646;23.368;2023-07-28T05:06:57;94621.13;;;25.33;35.77
39999;BME280;25696;42.646;23.368;2023-07-28T05:09:22;94628.72;;;25.46;35.53
39999;BME280;25696;42.646;23.368;2023-07-28T05:11:48;94630.09;;;25.20;36.19
39999;BME280;25696;42.646;23.368;2023-07-28T05:14:13;94622.78;;;26.83;33.87
39999;BME280;25696;42.646;23.368;2023-07-28T05:16:38;94635.13;;;27.04;33.10
39999;BME280;25696;42.646;23.368;2023-07-28T05:19:07;94623.78;;;27.33;32.35
39999;BME280;25696;42.646;23.368;2023-07-28T05:21:32;94626.94;;;27.13;32.96
39999;BME280;25696;42.646;23.368;2023-07-28T05:23:58;94620.47;;;27.99;31.97
39999;BME280;25696;42.646;23.368;2023-07-28T05:26:24;94629.97;;;28.56;31.56
39999;BME280;25696;42.646;23.368;2023-07-28T05:28:49;94630.84;;;29.49;29.76
39999;BME280;25696;42.646;23.368;2023-07-28T05:31:15;94635.81;;;28.77;30.07
39999;BME280;25696;42.646;23.368;2023-07-28T05:33:41;94624.16;;;28.88;29.96
39999;BME280;25696;42.646;23.368;2023-07-28T05:36:06;94628.97;;;26.94;32.81
39999;BME280;25696;42.646;23.368;2023-07-28T05:38:32;94624.25;;;26.11;32.56
39999;BME280;25696;42.646;23.368;2023-07-28T05:40:59;94634.78;;;24.34;35.73
39999;BME280;25696;42.646;23.368;2023-07-28T05:43:28;94634.69;;;25.30;33.35
39999;BME280;25696;42.646;23.368;2023-07-28T05:45:55;94615.13;;;25.26;33.24
39999;BME280;25696;42.646;23.368;2023-07-28T05:48:21;94616.63;;;25.42;33.61
39999;BME280;25696;42.646;23.368;2023-07-28T05:50:46;94615.84;;;25.61;33.52
39999;BME280;25696;42.646;23.368;2023-07-28T05:53:12;94622.78;;;25.77;33.97
39999;BME280;25696;42.646;23.368;2023-07-28T05:55:39;94608.78;;;25.73;33.11
39999;BME280;25696;42.646;23.368;2023-07-28T05:58:04;94618.47;;;24.76;34.68
39999;BME280;25696;42.646;23.368;2023-07-28T06:00:30;94606.88;;;25.50;33.65
39999;BME280;25696;42.646;23.368;2023-07-28T06:02:56;94611.88;;;25.48;33.89
39999;BME280;25696;42.646;23.368;2023-07-28T06:05:22;94606.91;;;26.24;33.59
39999;BME280;25696;42.646;23.368;2023-07-28T06:07:48;94607.09;;;25.53;34.06
39999;BME280;25696;42.646;23.368;2023-07-28T06:10:13;94596.91;;;25.91;33.94
39999;BME280;25696;42.646;23.368;2023-07-28T06:12:39;94610.44;;;27.08;32.85
39999;BME280;25696;42.646;23.368;2023-07-28T06:15:04;94607.59;;;27.13;32.04
39999;BME280;25696;42.646;23.368;2023-07-28T06:17:30;94606.53;;;27.91;31.14
39999;BME280;25696;42.646;23.368;2023-07-28T06:19:55;94605.16;;;28.15;30.33
39999;BME280;25696;42.646;23.368;2023-07-28T06:22:21;94601.84;;;28.93;29.61
39999;BME280;25696;42.646;23.368;2023-07-28T06:24:46;94603.81;;;29.23;28.91
39999;BME280;25696;42.646;23.368;2023-07-28T06:27:12;94600.13;;;29.06;29.10
39999;BME280;25696;42.646;23.368;2023-07-28T06:29:37;94587.22;;;27.36;30.85
39999;BME280;25696;42.646;23.368;2023-07-28T06:32:03;94587.47;;;28.03;30.59
39999;BME280;25696;42.646;23.368;2023-07-28T06:34:28;94595.56;;;29.40;29.19
39999;BME280;25696;42.646;23.368;2023-07-28T06:36:54;94593.13;;;29.08;29.17
39999;BME280;25696;42.646;23.368;2023-07-28T06:39:19;94599.75;;;29.29;29.09
39999;BME280;25696;42.646;23.368;2023-07-28T06:41:45;94597.00;;;29.38;29.09
39999;BME280;25696;42.646;23.368;2023-07-28T06:44:10;94592.09;;;29.26;29.06
39999;BME280;25696;42.646;23.368;2023-07-28T06:46:36;94598.03;;;28.81;29.76
39999;BME280;25696;42.646;23.368;2023-07-28T06:49:01;94588.81;;;27.92;31.04
39999;BME280;25696;42.646;23.368;2023-07-28T06:51:27;94597.09;;;26.83;32.57
39999;BME280;25696;42.646;23.368;2023-07-28T06:53:52;94599.09;;;25.76;34.08
39999;BME280;25696;42.646;23.368;2023-07-28T06:56:18;94592.22;;;26.29;33.27
39999;BME280;25696;42.646;23.368;2023-07-28T06:58:43;94596.53;;;25.98;33.99
39999;BME280;25696;42.646;23.368;2023-07-28T07:01:09;94595.25;;;25.06;34.91
39999;BME280;25696;42.646;23.368;2023-07-28T07:03:36;94604.22;;;25.40;34.18
39999;BME280;25696;42.646;23.368;2023-07-28T07:06:02;94602.69;;;24.19;36.02
39999;BME280;25696;42.646;23.368;2023-07-28T07:08:27;94595.81;;;23.83;36.60
39999;BME280;25696;42.646;23.368;2023-07-28T07:10:53;94592.72;;;23.89;36.61
39999;BME280;25696;42.646;23.368;2023-07-28T07:13:18;94607.38;;;24.19;36.37
39999;BME280;25696;42.646;23.368;2023-07-28T07:15:44;94606.63;;;24.08;36.56
39999;BME280;25696;42.646;23.368;2023-07-28T07:18:10;94608.09;;;24.34;36.21
39999;BME280;25696;42.646;23.368;2023-07-28T07:20:37;94592.13;;;24.60;36.08
39999;BME280;25696;42.646;23.368;2023-07-28T07:23:03;94601.56;;;25.11;35.36
39999;BME280;25696;42.646;23.368;2023-07-28T07:25:29;94606.59;;;24.18;36.77
39999;BME280;25696;42.646;23.368;2023-07-28T07:27:54;94600.94;;;23.56;37.61
39999;BME280;25696;42.646;23.368;2023-07-28T07:30:20;94598.97;;;24.00;37.49
39999;BME280;25696;42.646;23.368;2023-07-28T07:32:46;94605.72;;;23.79;37.57
39999;BME280;25696;42.646;23.368;2023-07-28T07:35:11;94610.88;;;23.90;37.63
39999;BME280;25696;42.646;23.368;2023-07-28T07:37:38;94604.72;;;24.71;36.74
39999;BME280;25696;42.646;23.368;2023-07-28T07:40:04;94614.59;;;24.77;36.43
39999;BME280;25696;42.646;23.368;2023-07-28T07:42:46;94600.72;;;25.11;35.13
39999;BME280;25696;42.646;23.368;2023-07-28T07:45:13;94601.53;;;25.35;34.99
39999;BME280;25696;42.646;23.368;2023-07-28T07:47:40;94605.28;;;25.86;34.22
39999;BME280;25696;42.646;23.368;2023-07-28T07:50:07;94608.25;;;25.05;35.89
39999;BME280;25696;42.646;23.368;2023-07-28T07:52:37;94612.38;;;24.45;36.12
39999;BME280;25696;42.646;23.368;2023-07-28T07:55:03;94614.16;;;23.92;37.41
39999;BME280;25696;42.646;23.368;2023-07-28T07:57:29;94610.66;;;23.77;37.39
39999;BME280;25696;42.646;23.368;2023-07-28T07:59:54;94616.50;;;24.14;36.65
39999;BME280;25696;42.646;23.368;2023-07-28T08:02:20;94622.63;;;24.40;36.43
39999;BME280;25696;42.646;23.368;2023-07-28T08:04:45;94618.25;;;24.39;36.55
39999;BME280;25696;42.646;23.368;2023-07-28T08:07:11;94621.84;;;24.34;36.97
39999;BME280;25696;42.646;23.368;2023-07-28T08:09:36;94611.69;;;24.92;35.86
39999;BME280;25696;42.646;23.368;2023-07-28T08:12:02;94609.75;;;25.16;35.44
39999;BME280;25696;42.646;23.368;2023-07-28T08:14:28;94610.03;;;25.62;34.51
39999;BME280;25696;42.646;23.368;2023-07-28T08:16:54;94602.50;;;25.49;35.13
39999;BME280;25696;42.646;23.368;2023-07-28T08:19:19;94607.00;;;24.93;35.67
39999;BME280;25696;42.646;23.368;2023-07-28T08:21:45;94611.22;;;25.32;34.94
39999;BME280;25696;42.646;23.368;2023-07-28T08:24:10;94593.16;;;25.21;35.48
39999;BME280;25696;42.646;23.368;2023-07-28T08:26:37;94607.13;;;25.30;35.57
39999;BME280;25696;42.646;23.368;2023-07-28T08:29:02;94604.06;;;25.08;35.71
39999;BME280;25696;42.646;23.368;2023-07-28T08:31:27;94605.91;;;24.60;35.99
39999;BME280;25696;42.646;23.368;2023-07-28T08:33:53;94601.66;;;24.44;36.14
39999;BME280;25696;42.646;23.368;2023-07-28T08:36:18;94608.66;;;24.31;36.54
39999;BME280;25696;42.646;23.368;2023-07-28T08:38:44;94599.09;;;24.52;36.74
39999;BME280;25696;42.646;23.368;2023-07-28T08:41:10;94593.50;;;24.62;36.20
39999;BME280;25696;42.646;23.368;2023-07-28T08:43:36;94596.50;;;24.66;35.93
39999;BME280;25696;42.646;23.368;2023-07-28T08:46:01;94595.88;;;25.03;35.96
39999;BME280;25696;42.646;23.368;2023-07-28T08:48:27;94587.59;;;25.03;35.94
39999;BME280;25696;42.646;23.368;2023-07-28T08:50:53;94583.19;;;25.49;34.77
39999;BME280;25696;42.646;23.368;2023-07-28T08:53:18;94595.03;;;25.49;34.52
39999;BME280;25696;42.646;23.368;2023-07-28T08:55:44;94586.75;;;26.05;33.79
39999;BME280;25696;42.646;23.368;2023-07-28T08:58:18;94590.53;;;26.14;34.00
39999;BME280;25696;42.646;23.368;2023-07-28T09:00:45;94584.84;;;26.24;33.85
39999;BME280;25696;42.646;23.368;2023-07-28T09:03:12;94583.03;;;26.34;33.41
39999;BME280;25696;42.646;23.368;2023-07-28T09:05:37;94577.25;;;26.16;33.40
39999;BME280;25696;42.646;23.368;2023-07-28T09:08:06;94570.91;;;26.80;32.62
39999;BME280;25696;42.646;23.368;2023-07-28T09:10:48;94568.59;;;27.15;32.01
39999;BME280;25696;42.646;23.368;2023-07-28T09:13:16;94551.38;;;27.45;31.69
39999;BME280;25696;42.646;23.368;2023-07-28T09:15:42;94558.84;;;27.03;32.18
39999;BME280;25696;42.646;23.368;2023-07-28T09:18:08;94556.19;;;27.12;32.12
39999;BME280;25696;42.646;23.368;2023-07-28T09:20:36;94552.72;;;27.47;31.48
39999;BME280;25696;42.646;23.368;2023-07-28T09:23:02;94539.16;;;27.95;31.11
39999;BME280;25696;42.646;23.368;2023-07-28T09:25:29;94534.00;;;28.38;30.16
39999;BME280;25696;42.646;23.368;2023-07-28T09:27:55;94539.13;;;28.53;30.04
39999;BME280;25696;42.646;23.368;2023-07-28T09:30:22;94528.97;;;28.62;29.56
39999;BME280;25696;42.646;23.368;2023-07-28T09:32:51;94530.31;;;29.52;28.76
39999;BME280;25696;42.646;23.368;2023-07-28T09:35:17;94512.69;;;29.48;28.74
39999;BME280;25696;42.646;23.368;2023-07-28T09:37:45;94507.25;;;30.33;27.61
39999;BME280;25696;42.646;23.368;2023-07-28T09:40:13;94524.31;;;31.62;26.90
39999;BME280;25696;42.646;23.368;2023-07-28T09:42:43;94511.53;;;32.31;25.81
39999;BME280;25696;42.646;23.368;2023-07-28T09:45:10;94500.38;;;32.97;24.66
39999;BME280;25696;42.646;23.368;2023-07-28T09:47:36;94492.47;;;32.54;24.99
39999;BME280;25696;42.646;23.368;2023-07-28T09:50:04;94496.22;;;32.58;24.67
39999;BME280;25696;42.646;23.368;2023-07-28T09:52:34;94494.16;;;33.72;23.21
39999;BME280;25696;42.646;23.368;2023-07-28T09:55:07;94499.38;;;34.50;23.09
39999;BME280;25696;42.646;23.368;2023-07-28T09:57:58;94506.78;;;35.13;22.61
39999;BME280;25696;42.646;23.368;2023-07-28T10:00:27;94498.38;;;35.29;22.35
39999;BME280;25696;42.646;23.368;2023-07-28T10:02:53;94492.41;;;34.71;22.43
39999;BME280;25696;42.646;23.368;2023-07-28T10:05:18;94495.53;;;34.70;22.51
39999;BME280;25696;42.646;23.368;2023-07-28T10:07:45;94493.50;;;35.41;22.06
39999;BME280;25696;42.646;23.368;2023-07-28T10:10:12;94488.31;;;36.25;21.03
39999;BME280;25696;42.646;23.368;2023-07-28T10:12:41;94487.66;;;35.97;21.39
39999;BME280;25696;42.646;23.368;2023-07-28T10:15:12;94486.41;;;35.79;21.02
39999;BME280;25696;42.646;23.368;2023-07-28T10:17:38;94476.44;;;35.15;21.97
39999;BME280;25696;42.646;23.368;2023-07-28T10:20:26;94475.09;;;36.06;21.04
39999;BME280;25696;42.646;23.368;2023-07-28T10:22:52;94484.13;;;35.84;21.42
39999;BME280;25696;42.646;23.368;2023-07-28T10:25:25;94475.19;;;36.29;21.24
39999;BME280;25696;42.646;23.368;2023-07-28T10:27:51;94472.16;;;33.83;22.83
39999;BME280;25696;42.646;23.368;2023-07-28T10:30:17;94482.34;;;32.49;24.45
39999;BME280;25696;42.646;23.368;2023-07-28T10:32:44;94473.25;;;30.91;26.54
39999;BME280;25696;42.646;23.368;2023-07-28T10:37:38;94463.47;;;29.79;28.08
39999;BME280;25696;42.646;23.368;2023-07-28T10:40:30;94458.00;;;29.57;27.97
39999;BME280;25696;42.646;23.368;2023-07-28T10:42:56;94460.97;;;29.69;28.86
39999;BME280;25696;42.646;23.368;2023-07-28T10:45:23;94444.13;;;29.57;28.16
39999;BME280;25696;42.646;23.368;2023-07-28T10:47:50;94448.84;;;29.30;28.30
39999;BME280;25696;42.646;23.368;2023-07-28T10:50:16;94439.19;;;29.19;28.72
39999;BME280;25696;42.646;23.368;2023-07-28T10:52:43;94453.09;;;29.36;28.64
39999;BME280;25696;42.646;23.368;2023-07-28T10:55:22;94451.00;;;28.86;28.54
39999;BME280;25696;42.646;23.368;2023-07-28T10:57:50;94445.34;;;28.60;29.01
39999;BME280;25696;42.646;23.368;2023-07-28T11:00:17;94435.88;;;28.30;29.34
39999;BME280;25696;42.646;23.368;2023-07-28T11:05:24;94421.19;;;28.30;29.78
39999;BME280;25696;42.646;23.368;2023-07-28T11:07:53;94418.78;;;28.37;29.67
39999;BME280;25696;42.646;23.368;2023-07-28T11:10:19;94418.84;;;27.70;30.28
39999;BME280;25696;42.646;23.368;2023-07-28T11:12:48;94418.66;;;27.67;30.26
39999;BME280;25696;42.646;23.368;2023-07-28T11:15:15;94415.38;;;27.65;30.31
39999;BME280;25696;42.646;23.368;2023-07-28T11:17:42;94416.56;;;27.72;30.03
39999;BME280;25696;42.646;23.368;2023-07-28T11:22:44;94409.50;;;28.33;30.30
39999;BME280;25696;42.646;23.368;2023-07-28T11:25:10;94402.78;;;28.56;29.57
39999;BME280;25696;42.646;23.368;2023-07-28T11:27:36;94386.69;;;28.67;29.22
39999;BME280;25696;42.646;23.368;2023-07-28T11:30:03;94379.59;;;28.91;28.58
39999;BME280;25696;42.646;23.368;2023-07-28T11:32:34;94387.00;;;29.21;26.70
39999;BME280;25696;42.646;23.368;2023-07-28T11:35:07;94384.72;;;29.23;27.65
39999;BME280;25696;42.646;23.368;2023-07-28T11:37:34;94380.31;;;29.31;27.69
39999;BME280;25696;42.646;23.368;2023-07-28T11:40:05;94368.19;;;29.01;27.71
39999;BME280;25696;42.646;23.368;2023-07-28T11:42:41;94376.66;;;29.05;28.80
39999;BME280;25696;42.646;23.368;2023-07-28T11:45:09;94369.16;;;28.97;28.86
39999;BME280;25696;42.646;23.368;2023-07-28T11:47:35;94372.50;;;28.68;29.23
39999;BME280;25696;42.646;23.368;2023-07-28T11:50:01;94368.56;;;28.30;29.56
39999;BME280;25696;42.646;23.368;2023-07-28T11:52:33;94367.88;;;28.16;29.36
39999;BME280;25696;42.646;23.368;2023-07-28T11:55:00;94373.00;;;28.31;29.20
39999;BME280;25696;42.646;23.368;2023-07-28T11:57:26;94370.09;;;28.05;30.03
39999;BME280;25696;42.646;23.368;2023-07-28T11:59:53;94375.34;;;28.15;29.25
39999;BME280;25696;42.646;23.368;2023-07-28T12:02:29;94371.34;;;28.30;29.20
39999;BME280;25696;42.646;23.368;2023-07-28T12:04:55;94372.31;;;28.56;29.28
39999;BME280;25696;42.646;23.368;2023-07-28T12:07:33;94356.91;;;28.89;28.77
39999;BME280;25696;42.646;23.368;2023-07-28T12:10:06;94360.53;;;28.98;28.44
39999;BME280;25696;42.646;23.368;2023-07-28T12:12:40;94358.13;;;29.31;29.01
39999;BME280;25696;42.646;23.368;2023-07-28T12:15:28;94365.16;;;29.63;28.46
39999;BME280;25696;42.646;23.368;2023-07-28T12:18:13;94352.72;;;29.86;27.83
39999;BME280;25696;42.646;23.368;2023-07-28T12:20:43;94346.63;;;30.09;27.53
39999;BME280;25696;42.646;23.368;2023-07-28T12:23:14;94345.44;;;30.19;27.48
39999;BME280;25696;42.646;23.368;2023-07-28T12:25:40;94345.63;;;30.23;26.87
39999;BME280;25696;42.646;23.368;2023-07-28T12:28:06;94341.13;;;30.47;26.69
39999;BME280;25696;42.646;23.368;2023-07-28T12:30:33;94348.13;;;30.53;27.20
39999;BME280;25696;42.646;23.368;2023-07-28T12:32:58;94343.91;;;30.47;26.88
39999;BME280;25696;42.646;23.368;2023-07-28T12:35:24;94349.41;;;30.64;25.83
39999;BME280;25696;42.646;23.368;2023-07-28T12:37:52;94335.59;;;30.47;26.13
39999;BME280;25696;42.646;23.368;2023-07-28T12:40:18;94339.06;;;30.27;26.44
39999;BME280;25696;42.646;23.368;2023-07-28T12:42:47;94330.47;;;30.03;27.44
39999;BME280;25696;42.646;23.368;2023-07-28T12:45:13;94328.78;;;30.19;27.11
39999;BME280;25696;42.646;23.368;2023-07-28T12:47:40;94337.06;;;30.45;26.96
39999;BME280;25696;42.646;23.368;2023-07-28T12:50:05;94336.06;;;30.49;26.71
39999;BME280;25696;42.646;23.368;2023-07-28T12:52:35;94329.50;;;30.54;26.54
39999;BME280;25696;42.646;23.368;2023-07-28T12:55:01;94305.16;;;30.51;26.59
39999;BME280;25696;42.646;23.368;2023-07-28T12:57:27;94318.91;;;30.47;28.02
39999;BME280;25696;42.646;23.368;2023-07-28T12:59:52;94324.94;;;30.49;28.20